Time;durP1;ratioP1;P1;durP2;ratioP2;P2;SDS_P1;SDS_P2;PMS_P1;PMS_P2;Temp;Humidity;BMP_temperature;BMP_pressure;BME280_temperature;BME280_humidity;BME280_pressure;Samples;Min_cycle;Max_cycle;Signal;HPM_P1;HPM_P2
2021/01/05 05:37:18;;;;;;;1.83;1.47;;;;;;;5.09;87.42;97542.22;1768111;80;20935;-65
2021/01/05 05:40:05;;;;;;;2.10;1.27;;;;;;;5.07;87.42;97540.98;1788592;80;21310;-65
2021/01/05 05:43:08;;;;;;;1.45;1.25;;;;;;;5.10;87.28;97543.09;1788653;80;20987;-66
2021/01/05 05:45:48;;;;;;;2.00;1.40;;;;;;;5.10;87.25;97540.44;1788377;80;20932;-65
2021/01/05 05:48:46;;;;;;;3.52;1.77;;;;;;;5.11;87.33;97544.80;1788335;80;20920;-66
2021/01/05 05:51:21;;;;;;;2.20;1.70;;;;;;;5.10;87.33;97536.45;1788370;80;22052;-66
2021/01/05 05:54:00;;;;;;;1.85;1.67;;;;;;;5.09;87.28;97541.38;1756104;80;21023;-66
2021/01/05 05:56:47;;;;;;;1.90;1.70;;;;;;;5.08;87.26;97544.52;1788341;80;21003;-67
2021/01/05 05:59:15;;;;;;;3.22;2.00;;;;;;;5.07;87.27;97544.98;1755928;80;21532;-65
2021/01/05 06:01:44;;;;;;;1.67;1.47;;;;;;;5.06;87.18;97534.42;1788625;80;20912;-66
2021/01/05 06:04:13;;;;;;;2.00;1.80;;;;;;;5.07;87.07;97538.80;1788652;80;21421;-67
2021/01/05 06:06:41;;;;;;;2.25;1.82;;;;;;;5.06;87.00;97535.30;1755706;80;20952;-67
2021/01/05 06:09:09;;;;;;;2.05;1.65;;;;;;;5.05;87.03;97533.58;1788410;79;21022;-67
2021/01/05 06:11:37;;;;;;;1.90;1.60;;;;;;;5.04;87.04;97529.19;1788608;80;20952;-66
2021/01/05 06:14:05;;;;;;;1.85;1.60;;;;;;;5.04;87.00;97523.87;1788458;80;20935;-67
2021/01/05 06:16:33;;;;;;;2.08;1.65;;;;;;;5.05;87.03;97544.22;1788461;80;21259;-66
2021/01/05 06:19:00;;;;;;;2.98;1.98;;;;;;;5.04;86.98;97539.84;1788487;80;20987;-65
2021/01/05 06:21:29;;;;;;;2.47;1.70;;;;;;;5.04;86.99;97537.17;1788371;80;21011;-66
2021/01/05 06:23:56;;;;;;;2.72;2.08;;;;;;;5.03;87.01;97538.15;1788615;80;20936;-66
2021/01/05 06:26:24;;;;;;;2.67;2.27;;;;;;;5.02;87.05;97537.75;1788050;80;20951;-66
2021/01/05 06:28:51;;;;;;;2.98;2.52;;;;;;;5.02;86.96;97539.08;1787619;79;22668;-66
2021/01/05 06:31:19;;;;;;;2.17;1.98;;;;;;;5.04;86.91;97538.51;1788515;80;21011;-67
2021/01/05 06:33:48;;;;;;;3.35;2.20;;;;;;;5.04;86.87;97539.84;1788532;80;21340;-67
2021/01/05 06:36:16;;;;;;;2.90;2.20;;;;;;;5.06;86.78;97545.06;1787960;79;20944;-66
2021/01/05 06:38:44;;;;;;;2.27;1.98;;;;;;;5.04;86.71;97538.51;1790856;79;20924;-67
2021/01/05 06:41:13;;;;;;;4.60;1.98;;;;;;;5.06;86.61;97535.75;1779991;80;21359;-67
2021/01/05 06:43:41;;;;;;;2.45;2.25;;;;;;;5.03;86.60;97534.16;1790696;80;20998;-67
2021/01/05 06:46:09;;;;;;;2.25;2.05;;;;;;;5.04;86.62;97542.50;1779969;80;21365;-67
2021/01/05 06:48:36;;;;;;;2.40;1.80;;;;;;;5.03;86.56;97542.14;1790567;80;21499;-66
2021/01/05 06:51:05;;;;;;;1.90;1.70;;;;;;;5.04;86.54;97546.98;1779317;80;20952;-67
2021/01/05 06:53:33;;;;;;;2.80;2.02;;;;;;;5.02;86.65;97540.41;1790741;80;22274;-66
2021/01/05 06:56:00;;;;;;;3.62;2.22;;;;;;;5.03;86.66;97543.92;1779946;80;20948;-67
2021/01/05 06:58:32;;;;;;;2.20;1.75;;;;;;;5.02;86.54;97538.23;1790200;78;21011;-63
2021/01/05 07:01:03;;;;;;;2.50;2.22;;;;;;;5.02;86.66;97538.23;1779410;80;48123;-66
2021/01/05 07:03:31;;;;;;;4.47;3.47;;;;;;;5.01;86.78;97531.19;1750323;80;21575;-65
2021/01/05 07:05:59;;;;;;;3.95;3.55;;;;;;;5.01;86.77;97532.07;1779620;80;22814;-68
2021/01/05 07:08:26;;;;;;;5.00;3.40;;;;;;;5.00;86.75;97533.01;1790607;78;20944;-67
2021/01/05 07:10:54;;;;;;;4.70;4.15;;;;;;;5.02;86.68;97535.58;1779925;80;20900;-66
2021/01/05 07:13:22;;;;;;;4.25;3.17;;;;;;;5.02;86.74;97536.42;1790706;80;20991;-66
2021/01/05 07:15:50;;;;;;;4.92;2.80;;;;;;;5.00;86.75;97534.34;1779902;80;20929;-66
2021/01/05 07:18:18;;;;;;;4.25;3.35;;;;;;;4.99;86.89;97532.62;1790804;79;21266;-66
2021/01/05 07:20:47;;;;;;;3.75;3.45;;;;;;;5.00;86.96;97537.48;1778890;80;20956;-66
2021/01/05 07:23:15;;;;;;;2.77;2.47;;;;;;;5.02;86.89;97531.10;1790652;80;21353;-66
2021/01/05 07:25:43;;;;;;;3.70;3.30;;;;;;;5.01;86.86;97526.75;1779573;80;21015;-66
2021/01/05 07:28:13;;;;;;;2.70;2.27;;;;;;;5.01;86.84;97524.09;1790387;80;21002;-67
2021/01/05 07:30:41;;;;;;;3.75;2.52;;;;;;;5.01;86.69;97529.41;1779698;80;21371;-69
2021/01/05 07:33:08;;;;;;;4.33;3.02;;;;;;;5.02;86.68;97537.75;1790589;80;21054;-66
2021/01/05 07:35:36;;;;;;;3.70;2.12;;;;;;;4.96;86.61;97538.13;1780001;80;20892;-66
2021/01/05 07:38:04;;;;;;;2.35;2.15;;;;;;;4.94;86.70;97536.04;1776711;79;20946;-68
2021/01/05 07:40:33;;;;;;;2.67;2.10;;;;;;;4.94;86.69;97528.05;1769009;81;20935;-67
2021/01/05 07:43:00;;;;;;;2.10;1.90;;;;;;;4.96;86.71;97525.30;1774444;80;21204;-67
2021/01/05 07:45:29;;;;;;;2.80;2.35;;;;;;;4.95;86.48;97524.45;1723860;82;20944;-66
2021/01/05 07:47:57;;;;;;;2.30;2.10;;;;;;;4.95;86.59;97527.12;1773494;79;20942;-67
2021/01/05 07:50:25;;;;;;;7.20;5.92;;;;;;;4.97;86.43;97522.55;1774269;80;20887;-60
2021/01/05 07:52:55;;;;;;;3.70;3.40;;;;;;;4.96;86.47;97534.13;1722057;83;20948;-65
2021/01/05 07:55:24;;;;;;;4.50;4.10;;;;;;;4.96;86.56;97539.45;1708740;84;21212;-66
2021/01/05 07:57:53;;;;;;;5.60;4.95;;;;;;;4.96;86.71;97546.11;1772810;80;21375;-65
2021/01/05 08:00:23;;;;;;;4.42;3.95;;;;;;;4.96;86.65;97537.28;1722005;83;21007;-65
2021/01/05 08:02:51;;;;;;;7.17;6.47;;;;;;;4.95;86.59;97540.42;1774468;80;21554;-67
2021/01/05 08:05:19;;;;;;;4.65;3.80;;;;;;;4.95;86.55;97539.09;1774439;80;20934;-65
2021/01/05 08:07:48;;;;;;;4.83;3.62;;;;;;;4.97;86.61;97550.48;1774386;80;22302;-67
2021/01/05 08:10:29;;;;;;;4.62;4.03;;;;;;;4.96;86.66;97534.62;1774374;80;20973;-65
2021/01/05 08:12:56;;;;;;;4.40;4.00;;;;;;;4.94;86.69;97536.04;1722262;82;20920;-68
2021/01/05 08:15:26;;;;;;;7.30;6.50;;;;;;;4.95;86.59;97548.41;1774096;80;21505;-66
2021/01/05 08:17:53;;;;;;;5.45;4.17;;;;;;;4.97;86.54;97541.17;1774402;80;21554;-67
2021/01/05 08:20:25;;;;;;;4.00;3.60;;;;;;;4.97;86.53;97539.84;1774138;80;21384;-69
2021/01/05 08:22:52;;;;;;;4.83;3.22;;;;;;;4.97;86.53;97546.50;1722606;82;21031;-67
2021/01/05 08:25:21;;;;;;;12.88;10.13;;;;;;;4.96;86.47;97538.61;1774258;80;21036;-69
2021/01/05 08:27:51;;;;;;;5.05;3.45;;;;;;;4.92;86.59;97540.61;1774386;80;21045;-69
2021/01/05 08:30:29;;;;;;;3.62;3.08;;;;;;;4.94;86.51;97540.03;1774461;80;21013;-67
2021/01/05 08:33:06;;;;;;;7.03;4.17;;;;;;;4.95;86.37;97545.74;1722273;83;21373;-66
2021/01/05 08:35:33;;;;;;;4.30;3.62;;;;;;;4.93;86.22;97546.77;1773960;80;20942;-66
2021/01/05 08:38:03;;;;;;;4.55;4.08;;;;;;;4.96;86.10;97544.78;1781141;79;21123;-66
2021/01/05 08:40:32;;;;;;;4.05;3.62;;;;;;;4.98;86.02;97534.91;1753693;81;20999;-66
2021/01/05 08:43:05;;;;;;;4.65;3.70;;;;;;;4.96;85.96;97534.13;1723913;83;21446;-66
2021/01/05 08:45:34;;;;;;;4.50;4.10;;;;;;;4.99;85.95;97535.77;1723894;83;21422;-64
2021/01/05 08:48:01;;;;;;;4.28;3.27;;;;;;;4.98;86.04;97540.23;1723631;83;21988;-66
2021/01/05 08:50:32;;;;;;;3.45;3.15;;;;;;;4.97;86.00;97538.52;1753507;81;21031;-65
2021/01/05 08:53:08;;;;;;;4.10;2.80;;;;;;;4.99;85.98;97542.41;1723786;82;21051;-65
2021/01/05 08:55:40;;;;;;;4.47;4.08;;;;;;;4.98;86.00;97541.57;1772674;81;20946;-66
2021/01/05 08:58:08;;;;;;;4.05;3.10;;;;;;;4.97;85.99;97542.50;1753927;81;22289;-66
2021/01/05 09:00:36;;;;;;;3.83;3.47;;;;;;;4.97;85.82;97541.17;1753746;81;20949;-66
2021/01/05 09:03:05;;;;;;;3.87;3.40;;;;;;;4.97;85.65;97541.17;1753729;80;20989;-65
2021/01/05 09:05:36;;;;;;;5.08;4.12;;;;;;;4.97;85.63;97532.34;1751938;81;20970;-66
2021/01/05 09:08:04;;;;;;;4.35;3.62;;;;;;;4.96;85.54;97545.26;1753737;80;20996;-67
2021/01/05 09:10:33;;;;;;;4.03;3.02;;;;;;;4.91;85.57;97544.20;1753756;81;22842;-66
2021/01/05 09:13:01;;;;;;;3.98;3.37;;;;;;;4.90;85.55;97537.16;1753708;81;21928;-65
2021/01/05 09:15:29;;;;;;;3.77;3.42;;;;;;;4.90;85.47;97538.48;1753720;81;21036;-66
2021/01/05 09:17:56;;;;;;;3.00;2.62;;;;;;;4.91;85.53;97532.23;1753628;81;20978;-65
2021/01/05 09:20:24;;;;;;;4.10;3.62;;;;;;;4.94;85.45;97540.52;1753711;81;20961;-65
2021/01/05 09:22:53;;;;;;;4.75;3.02;;;;;;;4.92;85.34;97533.95;1753658;81;21318;-66
2021/01/05 09:25:21;;;;;;;4.08;2.67;;;;;;;4.95;85.16;97537.77;1753738;80;21562;-65
2021/01/05 09:27:51;;;;;;;2.27;2.08;;;;;;;4.95;84.86;97532.89;1753668;81;20937;-66
2021/01/05 09:30:19;;;;;;;4.12;2.65;;;;;;;4.95;84.53;97532.44;1753636;81;20938;-65
2021/01/05 09:32:46;;;;;;;2.05;1.62;;;;;;;4.96;84.27;97542.11;1753795;81;20942;-67
2021/01/05 09:35:15;;;;;;;2.60;2.25;;;;;;;4.97;84.22;97535.86;1753642;81;21329;-66
2021/01/05 09:37:45;;;;;;;3.90;3.42;;;;;;;4.96;84.00;97534.62;1752923;81;20969;-66
2021/01/05 09:40:14;;;;;;;5.65;4.17;;;;;;;4.99;84.01;97532.62;1790667;80;20987;-66
2021/01/05 09:42:43;;;;;;;4.92;3.10;;;;;;;4.96;83.83;97531.47;1791076;80;21444;-67
2021/01/05 09:45:12;;;;;;;3.92;2.42;;;;;;;4.96;83.91;97531.47;1791127;80;21007;-66
2021/01/05 09:47:41;;;;;;;3.05;2.15;;;;;;;4.99;83.76;97547.25;1791064;79;21247;-68
2021/01/05 09:50:11;;;;;;;1.85;1.50;;;;;;;4.97;83.37;97531.02;1791010;80;20995;-65
2021/01/05 09:52:39;;;;;;;3.67;2.30;;;;;;;4.96;83.30;97532.80;1791083;80;21421;-67
2021/01/05 09:55:08;;;;;;;2.30;2.10;;;;;;;4.95;83.10;97536.88;1791116;80;20928;-67
2021/01/05 09:57:36;;;;;;;2.05;1.70;;;;;;;4.94;83.20;97538.70;1791202;80;21333;-66
2021/01/05 10:00:07;;;;;;;1.82;1.72;;;;;;;4.91;82.99;97528.23;1791124;80;21248;-66
2021/01/05 10:02:34;;;;;;;2.47;1.70;;;;;;;4.93;83.00;97531.66;1756795;80;20951;-66
2021/01/05 10:05:04;;;;;;;3.62;2.35;;;;;;;4.94;82.95;97535.19;1791058;80;21010;-66
2021/01/05 10:07:32;;;;;;;4.40;4.00;;;;;;;4.94;83.01;97532.05;1791061;80;20987;-65
2021/01/05 10:09:59;;;;;;;2.85;2.12;;;;;;;4.92;82.83;97537.06;1791094;80;21027;-67
2021/01/05 10:12:26;;;;;;;4.15;2.15;;;;;;;4.89;82.59;97538.97;1791091;80;22227;-66
2021/01/05 10:14:54;;;;;;;2.58;2.37;;;;;;;4.88;82.56;97531.08;1791084;80;20908;-67
2021/01/05 10:17:21;;;;;;;2.17;1.72;;;;;;;4.87;82.65;97529.36;1791133;80;20987;-66
2021/01/05 10:19:49;;;;;;;2.85;2.58;;;;;;;4.84;82.49;97529.54;1790996;80;21019;-65
2021/01/05 10:22:17;;;;;;;4.33;2.90;;;;;;;4.83;82.66;97521.20;1791114;80;20927;-66
2021/01/05 10:24:44;;;;;;;3.87;3.52;;;;;;;4.81;82.88;97517.30;1791109;80;21429;-65
2021/01/05 10:27:12;;;;;;;2.12;1.82;;;;;;;4.81;82.71;97516.42;1791128;80;21477;-65
2021/01/05 10:29:39;;;;;;;1.77;1.50;;;;;;;4.81;82.64;97516.42;1790990;80;21038;-66
2021/01/05 10:32:07;;;;;;;2.42;1.52;;;;;;;4.79;82.52;97517.00;1791076;80;20924;-65
2021/01/05 10:34:34;;;;;;;2.47;2.00;;;;;;;4.77;82.24;97523.73;1791167;80;21369;-66
2021/01/05 10:37:02;;;;;;;2.58;2.35;;;;;;;4.79;82.27;97523.16;1791080;80;21363;-66
2021/01/05 10:39:29;;;;;;;1.87;1.50;;;;;;;4.75;82.17;97526.13;1781808;80;21015;-65
2021/01/05 10:41:59;;;;;;;2.05;1.85;;;;;;;4.70;81.68;97533.90;1790848;80;20947;-66
2021/01/05 10:44:26;;;;;;;2.12;1.82;;;;;;;4.63;81.59;97521.89;1779958;80;21362;-65
2021/01/05 10:47:01;;;;;;;3.05;2.37;;;;;;;4.59;81.82;97517.73;1790836;80;21000;-66
2021/01/05 10:49:30;;;;;;;2.20;1.65;;;;;;;4.56;81.81;97520.56;1779865;80;21370;-65
2021/01/05 10:52:00;;;;;;;3.05;2.35;;;;;;;4.53;81.79;97530.05;1790780;80;20948;-66
2021/01/05 10:54:28;;;;;;;2.85;2.30;;;;;;;4.50;81.67;97528.91;1780076;80;21346;-65
2021/01/05 10:57:05;;;;;;;2.47;1.98;;;;;;;4.50;81.89;97527.58;1790721;80;21303;-66
2021/01/05 10:59:33;;;;;;;3.00;2.52;;;;;;;4.48;81.88;97522.83;1779971;80;20985;-66
2021/01/05 11:02:03;;;;;;;3.37;2.02;;;;;;;4.43;81.76;97532.41;1779997;80;21207;-66
2021/01/05 11:04:30;;;;;;;2.27;1.90;;;;;;;4.40;81.97;97528.59;1790683;80;21007;-66
2021/01/05 11:07:01;;;;;;;2.17;1.98;;;;;;;4.40;81.89;97522.39;1779896;80;20928;-66
2021/01/05 11:09:28;;;;;;;3.67;2.30;;;;;;;4.37;81.74;97525.23;1790720;78;20932;-66
2021/01/05 11:12:02;;;;;;;2.50;2.30;;;;;;;4.36;81.96;97526.20;1779992;80;20924;-66
2021/01/05 11:14:30;;;;;;;;;;;;;;;4.34;81.77;97508.52;1793573;80;22270;-68
2021/01/05 11:16:57;;;;;;;2.87;2.08;;;;;;;4.37;81.97;97510.61;1790714;80;20155;-66
2021/01/05 11:19:24;;;;;;;3.75;2.70;;;;;;;4.35;82.07;97509.37;1779888;79;20940;-65
2021/01/05 11:21:56;;;;;;;4.08;3.33;;;;;;;4.32;82.05;97506.44;1790769;80;21006;-67
2021/01/05 11:24:25;;;;;;;2.75;2.33;;;;;;;4.30;82.12;97504.35;1790665;80;20999;-66
2021/01/05 11:26:52;;;;;;;2.67;2.37;;;;;;;4.32;82.13;97497.58;1779931;80;21193;-66
2021/01/05 11:29:22;;;;;;;4.83;2.95;;;;;;;4.29;82.07;97505.28;1790680;78;21030;-64
2021/01/05 11:32:07;;;;;;;2.35;2.15;;;;;;;4.31;82.26;97507.38;1779942;80;20972;-66
2021/01/05 11:34:35;;;;;;;3.65;3.30;;;;;;;4.31;82.36;97520.66;1790646;80;20936;-64
2021/01/05 11:37:06;;;;;;;3.33;3.02;;;;;;;4.29;82.19;97510.59;1779973;80;21007;-65
2021/01/05 11:39:34;;;;;;;3.55;3.08;;;;;;;4.29;82.02;97513.26;1790726;79;21363;-66
2021/01/05 11:42:07;;;;;;;3.25;2.87;;;;;;;4.28;81.95;97508.87;1779955;80;21432;-64
2021/01/05 11:44:34;;;;;;;3.40;3.10;;;;;;;4.26;81.84;97499.30;1790764;80;20932;-65
2021/01/05 11:47:02;;;;;;;3.08;2.77;;;;;;;4.25;82.15;97514.37;1779954;80;20980;-64
2021/01/05 11:49:29;;;;;;;7.53;5.40;;;;;;;4.22;81.65;97511.89;1790766;80;20983;-65
2021/01/05 11:51:58;;;;;;;2.90;2.70;;;;;;;4.20;81.84;97512.45;1779985;80;23578;-65
2021/01/05 11:54:26;;;;;;;3.65;3.22;;;;;;;4.22;81.72;97511.05;1790689;80;20963;-65
2021/01/05 11:56:57;;;;;;;4.00;3.27;;;;;;;4.17;81.80;97511.30;1779944;80;20980;-65
2021/01/05 11:59:25;;;;;;;3.45;3.05;;;;;;;4.16;81.83;97526.41;1790475;78;20939;-64
2021/01/05 12:01:53;;;;;;;4.15;3.62;;;;;;;4.11;81.97;97524.95;1779983;80;20996;-64
2021/01/05 12:04:21;;;;;;;3.77;3.45;;;;;;;4.09;82.03;97537.47;1790671;80;21289;-65
2021/01/05 12:06:51;;;;;;;3.90;3.47;;;;;;;4.07;82.15;97531.40;1779984;80;21038;-65
2021/01/05 12:09:19;;;;;;;4.62;3.70;;;;;;;4.05;82.33;97538.58;1790925;80;20939;-64
2021/01/05 12:11:48;;;;;;;3.47;3.17;;;;;;;4.02;82.43;97527.67;1779892;80;21476;-65
2021/01/05 12:14:18;;;;;;;4.05;3.65;;;;;;;3.97;82.39;97531.03;1790605;80;21468;-64
2021/01/05 12:16:50;;;;;;;4.92;3.92;;;;;;;3.95;82.28;97552.38;1779956;80;21341;-65
2021/01/05 12:19:23;;;;;;;4.50;4.10;;;;;;;3.92;82.29;97545.06;1790801;77;20896;-64
2021/01/05 12:21:57;;;;;;;5.90;4.75;;;;;;;3.93;82.42;97543.65;1790095;80;21365;-65
2021/01/05 12:24:28;;;;;;;5.58;4.97;;;;;;;3.91;82.67;97542.89;1779860;80;21154;-65
2021/01/05 12:27:01;;;;;;;4.97;4.47;;;;;;;3.87;82.57;97542.66;1790987;80;20917;-65
2021/01/05 12:29:31;;;;;;;;;;;;;;;3.85;82.54;97543.23;1782599;80;21393;-66
2021/01/05 12:32:03;;;;;;;5.55;4.20;;;;;;;3.86;82.68;97548.91;1779874;80;20154;-66
2021/01/05 12:34:34;;;;;;;6.22;4.15;;;;;;;3.84;82.86;97561.91;1790848;80;20956;-64
2021/01/05 12:37:04;;;;;;;6.30;4.58;;;;;;;3.81;82.93;97549.64;1780068;80;20991;-65
2021/01/05 12:39:33;;;;;;;6.37;4.25;;;;;;;3.79;83.12;97547.06;1784507;79;20946;-66
2021/01/05 12:42:07;;;;;;;6.55;4.60;;;;;;;3.80;83.21;97542.16;1753690;81;21162;-65
2021/01/05 12:44:37;;;;;;;3.12;2.92;;;;;;;3.82;83.09;97555.83;1748168;80;21504;-65
2021/01/05 12:47:04;;;;;;;4.72;4.28;;;;;;;3.78;83.05;97552.47;1723699;83;20957;-65
2021/01/05 12:49:32;;;;;;;4.72;4.33;;;;;;;3.80;83.02;97549.27;1753587;80;21015;-66
2021/01/05 12:52:09;;;;;;;5.67;5.05;;;;;;;3.75;83.18;97542.02;1753697;81;20989;-64
2021/01/05 12:54:36;;;;;;;4.95;4.37;;;;;;;3.75;83.28;97544.66;1753689;81;21366;-64
2021/01/05 12:57:06;;;;;;;4.92;4.42;;;;;;;3.73;83.05;97551.88;1753684;81;20957;-64
2021/01/05 12:59:33;;;;;;;5.08;4.58;;;;;;;3.72;82.99;97547.05;1753538;81;21020;-65
2021/01/05 13:02:04;;;;;;;5.08;4.45;;;;;;;3.71;82.98;97559.08;1753724;81;20954;-65
2021/01/05 13:04:31;;;;;;;5.60;4.40;;;;;;;3.71;83.03;97546.64;1753700;81;21005;-65
2021/01/05 13:06:59;;;;;;;4.80;4.37;;;;;;;3.68;82.82;97549.95;1753635;81;21148;-64
2021/01/05 13:09:26;;;;;;;5.70;5.10;;;;;;;3.64;82.79;97556.36;1753565;80;20949;-64
2021/01/05 13:11:55;;;;;;;7.20;5.80;;;;;;;3.58;83.00;97555.76;1753469;81;21049;-65
2021/01/05 13:14:23;;;;;;;6.10;5.50;;;;;;;3.58;83.00;97556.24;1753615;81;21027;-65
2021/01/05 13:16:50;;;;;;;5.90;5.03;;;;;;;3.55;83.13;97563.05;1753647;81;20997;-66
2021/01/05 13:19:21;;;;;;;5.87;5.05;;;;;;;3.54;83.17;97565.30;1753649;81;23594;-65
2021/01/05 13:21:50;;;;;;;7.97;5.50;;;;;;;3.52;83.37;97567.19;1753566;81;20941;-63
2021/01/05 13:24:27;;;;;;;7.67;6.92;;;;;;;3.49;83.50;97560.23;1753753;81;21351;-65
2021/01/05 13:27:02;;;;;;;6.25;5.65;;;;;;;3.47;83.62;97570.09;1753645;81;20933;-65
2021/01/05 13:29:38;;;;;;;5.85;5.22;;;;;;;3.46;83.55;97572.83;1753585;81;21330;-65
2021/01/05 13:32:14;;;;;;;7.53;6.45;;;;;;;3.45;83.37;97569.30;1753726;81;21195;-65
2021/01/05 13:34:42;;;;;;;7.15;6.37;;;;;;;3.44;83.43;97578.22;1753599;81;20989;-65
2021/01/05 13:37:15;;;;;;;7.15;6.45;;;;;;;3.43;83.62;97587.11;1753371;81;21025;-66
2021/01/05 13:39:42;;;;;;;7.55;6.72;;;;;;;3.42;83.68;97582.28;1755511;81;21009;-65
2021/01/05 13:42:21;;;;;;;7.10;6.40;;;;;;;3.40;83.66;97584.63;1758307;81;21040;-65
2021/01/05 13:44:50;;;;;;;7.95;6.62;;;;;;;3.39;83.71;97588.20;1758269;81;21465;-65
2021/01/05 13:47:21;;;;;;;7.20;5.47;;;;;;;3.36;83.63;97585.71;1758228;81;20945;-66
2021/01/05 13:49:49;;;;;;;7.53;6.58;;;;;;;3.33;83.71;97582.77;1758282;81;21354;-65
2021/01/05 13:52:21;;;;;;;7.30;6.60;;;;;;;3.29;83.73;97587.00;1758225;80;21377;-66
2021/01/05 13:54:49;;;;;;;8.05;7.22;;;;;;;3.28;84.04;97582.16;1758314;81;20933;-65
2021/01/05 13:57:24;;;;;;;8.28;6.78;;;;;;;3.25;84.06;97585.83;1758291;81;21337;-64
2021/01/05 13:59:53;;;;;;;9.15;8.10;;;;;;;3.27;84.07;97599.02;1758174;81;21013;-66
2021/01/05 14:02:24;;;;;;;7.53;6.65;;;;;;;3.28;84.04;97596.77;1758195;81;21021;-65
2021/01/05 14:04:52;;;;;;;8.50;7.70;;;;;;;3.27;84.04;97604.80;1758156;81;21001;-64
2021/01/05 14:07:21;;;;;;;6.85;6.12;;;;;;;3.24;84.00;97608.47;1758131;81;21065;-65
2021/01/05 14:09:49;;;;;;;8.68;7.70;;;;;;;3.24;84.01;97606.66;1724940;81;22292;-65
2021/01/05 14:12:22;;;;;;;9.25;8.35;;;;;;;3.24;84.01;97602.68;1758072;81;20938;-64
2021/01/05 14:14:51;;;;;;;7.50;6.35;;;;;;;3.24;83.99;97611.12;1758320;81;21048;-66
2021/01/05 14:17:21;;;;;;;8.13;5.95;;;;;;;3.22;83.96;97605.89;1758165;81;20949;-65
2021/01/05 14:19:48;;;;;;;8.00;7.15;;;;;;;3.21;83.89;97605.49;1758245;81;20945;-64
2021/01/05 14:22:16;;;;;;;11.35;8.25;;;;;;;3.20;83.82;97607.78;1758148;81;21403;-65
2021/01/05 14:24:44;;;;;;;6.75;6.15;;;;;;;3.18;83.88;97607.46;1758108;81;21032;-65
2021/01/05 14:27:13;;;;;;;7.25;6.55;;;;;;;3.15;83.88;97611.12;1758304;80;21009;-66
2021/01/05 14:29:43;;;;;;;9.15;7.42;;;;;;;3.15;83.85;97613.77;1757938;81;21008;-66
2021/01/05 14:32:11;;;;;;;7.83;7.00;;;;;;;3.14;83.93;97625.34;1758226;81;21016;-66
2021/01/05 14:34:40;;;;;;;6.92;6.20;;;;;;;3.11;84.10;97624.17;1758263;81;22308;-67
2021/01/05 14:37:17;;;;;;;7.30;6.60;;;;;;;3.12;84.10;97633.83;1758009;81;20910;-65
2021/01/05 14:39:44;;;;;;;6.60;6.00;;;;;;;3.10;84.04;97630.41;1750183;81;20946;-66
2021/01/05 14:42:15;;;;;;;7.92;6.70;;;;;;;3.10;83.93;97631.73;1774507;80;22201;-66
2021/01/05 14:44:44;;;;;;;7.67;6.30;;;;;;;3.06;84.00;97642.13;1774453;80;21009;-66
2021/01/05 14:47:18;;;;;;;7.97;7.17;;;;;;;3.06;84.14;97646.11;1774571;80;22278;-65
2021/01/05 14:49:50;;;;;;;8.88;7.87;;;;;;;3.01;84.08;97648.12;1774264;80;20937;-64
2021/01/05 14:52:22;;;;;;;7.15;6.40;;;;;;;3.02;84.07;97652.50;1722244;82;20944;-65
2021/01/05 14:54:50;;;;;;;9.88;7.90;;;;;;;3.00;84.08;97647.75;1774136;80;20989;-66
2021/01/05 14:57:18;;;;;;;9.65;7.08;;;;;;;3.00;84.18;97649.08;1722021;82;20940;-64
2021/01/05 14:59:46;;;;;;;9.95;7.87;;;;;;;2.99;84.34;97650.00;1737220;82;21277;-65
2021/01/05 15:02:15;;;;;;;8.20;7.40;;;;;;;2.98;84.38;97656.23;1774311;80;21459;-66
2021/01/05 15:04:46;;;;;;;7.47;6.22;;;;;;;2.97;84.34;97662.02;1722013;82;20968;-66
2021/01/05 15:07:14;;;;;;;7.78;6.97;;;;;;;2.98;84.39;97670.82;1774077;80;20949;-66
2021/01/05 15:09:42;;;;;;;7.45;6.55;;;;;;;2.97;84.50;97673.11;1722705;82;20999;-65
2021/01/05 15:12:10;;;;;;;8.65;7.72;;;;;;;2.96;84.55;97664.75;1771212;80;21355;-66
2021/01/05 15:14:37;;;;;;;9.48;8.48;;;;;;;2.95;84.61;97678.94;1774291;80;21823;-66
2021/01/05 15:17:05;;;;;;;8.55;7.70;;;;;;;2.94;84.65;97681.22;1773376;80;21384;-65
2021/01/05 15:19:34;;;;;;;7.83;6.97;;;;;;;2.93;84.62;97682.14;1722055;83;21012;-65
2021/01/05 15:22:01;;;;;;;8.03;7.33;;;;;;;2.92;84.47;97679.09;1737103;82;20970;-65
2021/01/05 15:24:29;;;;;;;7.78;6.92;;;;;;;2.89;84.24;97680.12;1774306;80;21200;-65
2021/01/05 15:26:56;;;;;;;7.53;6.75;;;;;;;2.85;84.47;97687.38;1773268;80;20950;-65
2021/01/05 15:29:24;;;;;;;8.58;7.00;;;;;;;2.82;84.59;97687.97;1774352;80;21005;-65
2021/01/05 15:31:53;;;;;;;8.48;7.33;;;;;;;2.82;84.71;97682.22;1721815;82;21460;-65
2021/01/05 15:34:23;;;;;;;6.78;6.08;;;;;;;2.83;84.85;97685.72;1774357;80;21056;-64
2021/01/05 15:36:54;;;;;;;7.25;6.50;;;;;;;2.82;84.80;97684.87;1722183;82;22317;-64
2021/01/05 15:39:27;;;;;;;7.70;6.90;;;;;;;2.81;84.64;97684.95;1767399;80;21044;-65
2021/01/05 15:41:56;;;;;;;6.75;6.15;;;;;;;2.79;84.58;97685.02;1788165;80;20944;-65
2021/01/05 15:44:26;;;;;;;6.87;6.10;;;;;;;2.80;84.57;97693.35;1788527;80;21019;-64
2021/01/05 15:47:01;;;;;;;25.55;21.75;;;;;;;2.79;84.62;97689.00;1788463;80;21011;-66
2021/01/05 15:49:31;;;;;;;10.13;8.85;;;;;;;2.79;84.58;97689.00;1788458;80;21357;-65
2021/01/05 15:51:58;;;;;;;8.65;7.75;;;;;;;2.81;84.59;97696.41;1788489;80;20975;-65
2021/01/05 15:54:26;;;;;;;10.35;8.25;;;;;;;2.81;84.58;97703.52;1788543;80;20940;-65
2021/01/05 15:56:56;;;;;;;8.48;7.60;;;;;;;2.79;84.66;97698.73;1788513;80;21011;-65
2021/01/05 15:59:24;;;;;;;8.93;7.28;;;;;;;2.78;84.45;97699.69;1788436;80;20999;-67
2021/01/05 16:01:52;;;;;;;8.55;7.10;;;;;;;2.79;84.58;97700.06;1788551;80;21375;-64
2021/01/05 16:04:20;;;;;;;8.13;7.33;;;;;;;2.78;84.53;97708.49;1788559;80;21488;-65
2021/01/05 16:06:48;;;;;;;9.58;7.83;;;;;;;2.75;84.55;97699.36;1788573;80;20940;-66
2021/01/05 16:09:16;;;;;;;9.23;8.33;;;;;;;2.76;84.72;97709.05;1788448;80;20928;-67
2021/01/05 16:11:51;;;;;;;10.43;9.03;;;;;;;2.74;84.48;97713.54;1788524;80;20991;-66
2021/01/05 16:14:20;;;;;;;10.50;9.50;;;;;;;2.73;84.70;97712.29;1788661;80;21398;-65
2021/01/05 16:16:51;;;;;;;9.03;8.13;;;;;;;2.71;84.71;97716.34;1788421;80;20947;-66
2021/01/05 16:19:19;;;;;;;10.53;9.43;;;;;;;2.71;84.69;97722.97;1788521;80;21362;-66
2021/01/05 16:21:54;;;;;;;12.55;10.48;;;;;;;2.67;84.70;97717.44;1788522;80;20952;-64
2021/01/05 16:24:23;;;;;;;12.53;11.33;;;;;;;2.66;84.77;97724.99;1788519;80;20991;-65
2021/01/05 16:26:50;;;;;;;11.57;10.38;;;;;;;2.63;84.82;97719.84;1788513;80;21259;-65
2021/01/05 16:29:19;;;;;;;11.68;9.20;;;;;;;2.60;85.00;97716.00;1788393;79;20943;-66
2021/01/05 16:31:56;;;;;;;12.88;11.53;;;;;;;2.60;85.23;97722.63;1788544;80;20939;-64
2021/01/05 16:34:28;;;;;;;12.30;10.25;;;;;;;2.61;85.22;97728.34;1788500;80;20987;-66
2021/01/05 16:36:56;;;;;;;12.68;11.38;;;;;;;2.61;85.31;97730.52;1788678;80;21456;-66
2021/01/05 16:39:26;;;;;;;10.55;9.55;;;;;;;2.62;85.28;97730.07;1788476;79;21361;-64
2021/01/05 16:41:55;;;;;;;9.58;8.58;;;;;;;2.61;85.32;97728.34;1788546;80;20940;-65
2021/01/05 16:44:23;;;;;;;13.25;9.90;;;;;;;2.59;85.38;97725.76;1788576;80;21004;-66
2021/01/05 16:46:51;;;;;;;10.63;9.48;;;;;;;2.59;85.33;97736.37;1788443;80;21031;-66
2021/01/05 16:49:18;;;;;;;10.45;9.33;;;;;;;2.59;85.42;97732.87;1788507;79;20927;-65
2021/01/05 16:51:46;;;;;;;11.70;10.35;;;;;;;2.58;85.49;97735.11;1788461;80;21275;-65
2021/01/05 16:54:16;;;;;;;11.45;9.93;;;;;;;2.57;85.52;97740.02;1788602;80;20986;-66
2021/01/05 16:56:44;;;;;;;10.93;9.83;;;;;;;2.56;85.53;97740.96;1788623;80;21003;-66
2021/01/05 16:59:12;;;;;;;11.80;10.20;;;;;;;2.56;85.52;97739.64;1788501;79;21425;-66
2021/01/05 17:01:48;;;;;;;10.80;9.68;;;;;;;2.54;85.62;97741.03;1788716;80;20931;-66
2021/01/05 17:04:18;;;;;;;10.08;9.10;;;;;;;2.53;85.66;97735.33;1788657;80;21300;-66
2021/01/05 17:06:46;;;;;;;11.28;9.55;;;;;;;2.52;85.82;97750.39;1788606;80;20915;-64
2021/01/05 17:09:17;;;;;;;11.05;9.78;;;;;;;2.52;85.83;97748.18;1788508;80;21019;-65
2021/01/05 17:11:45;;;;;;;12.33;10.43;;;;;;;2.52;85.94;97753.04;1788609;80;20924;-65
2021/01/05 17:14:13;;;;;;;13.35;9.78;;;;;;;2.53;86.02;97741.48;1788673;80;20959;-65
2021/01/05 17:16:47;;;;;;;13.88;10.78;;;;;;;2.53;86.03;97748.11;1788557;80;21202;-65
2021/01/05 17:19:15;;;;;;;14.55;11.85;;;;;;;2.55;85.98;97752.48;1788595;80;20947;-65
2021/01/05 17:21:43;;;;;;;11.48;9.70;;;;;;;2.55;86.08;97748.03;1788619;80;21007;-64
2021/01/05 17:24:10;;;;;;;10.72;9.63;;;;;;;2.56;86.15;97747.59;1788608;80;21038;-65
2021/01/05 17:26:39;;;;;;;13.28;11.25;;;;;;;2.59;86.14;97750.09;1788579;80;20931;-65
2021/01/05 17:29:07;;;;;;;11.55;10.35;;;;;;;2.59;86.07;97754.08;1788647;79;21365;-65